YPKG/KGI METAR and TAF weather

Enter ICAO airport designator
Station Type Date Time Source
YPKG METAR 2019/10/15 04:30 UTC NOAA

YPKG 150430Z AUTO 23010KT 9999 // NCD 20/00 Q1018 RF00.0/000.0


Station Type Date Time Source
YPKG Decoded METAR 2019/10/15 04:30 UTC NOAA

Kalgoorlie Boulder Amo, Australia (YPKG) 30-47S 121-27E 370M
Oct 15, 2019 - 12:30 AM EDT / 2019.10.15 0430 UTC
Wind: from the SW (230 degrees) at 12 MPH (10 KT):0
Visibility: greater than 7 mile(s):0
Temperature: 68 F (20 C)
Dew Point: 32 F (0 C)
Relative Humidity: 26%
Pressure (altimeter): 30.06 in. Hg (1018 hPa)
ob: YPKG 150430Z AUTO 23010KT 9999 // NCD 20/00 Q1018 RF00.0/000.0
cycle: 4

Station Type Date Time Source
YPKG TAF 2019/10/14 18:00 UTC NOAA

TAF YPKG 141700Z 1418/1518 16012KT 9999 BKN016
FM150000 18010KT CAVOK

Example: see airport list